createdAt,value
2023-01-09T00:00:16.653Z,95.70
2023-01-09T00:01:16.626Z,95.59
2023-01-09T00:02:16.649Z,95.70
2023-01-09T00:03:16.683Z,95.70
2023-01-09T00:04:16.693Z,95.14
2023-01-09T00:05:16.592Z,95.39
2023-01-09T00:06:16.582Z,95.14
2023-01-09T00:07:16.569Z,94.77
2023-01-09T00:08:16.574Z,94.56
2023-01-09T00:09:16.574Z,94.52
2023-01-09T00:10:16.555Z,94.46
2023-01-09T00:11:16.535Z,94.26
2023-01-09T00:12:16.534Z,94.52
2023-01-09T00:13:16.512Z,94.42
2023-01-09T00:14:16.636Z,94.42
2023-01-09T00:15:16.497Z,94.42
2023-01-09T00:16:16.542Z,94.52
2023-01-09T00:17:16.482Z,94.62
2023-01-09T00:18:16.474Z,94.21
2023-01-09T00:19:16.480Z,94.11
2023-01-09T00:20:16.472Z,93.44
2023-01-09T00:21:16.439Z,93.96
2023-01-09T00:22:16.427Z,94.42
2023-01-09T00:23:16.420Z,94.17
2023-01-09T00:24:16.433Z,93.96
2023-01-09T00:25:16.411Z,94.01
2023-01-09T00:26:16.390Z,93.96
2023-01-09T00:27:16.387Z,94.01
2023-01-09T00:28:16.373Z,94.37
2023-01-09T00:29:16.363Z,94.01
2023-01-09T00:30:16.365Z,94.62
2023-01-09T00:31:16.340Z,94.73
2023-01-09T00:32:16.336Z,94.52
2023-01-09T00:33:16.328Z,94.42
2023-01-09T00:34:16.330Z,94.31
2023-01-09T00:35:16.305Z,94.73
2023-01-09T00:36:16.296Z,95.14
2023-01-09T00:37:16.293Z,94.93
2023-01-09T00:38:16.281Z,94.93
2023-01-09T00:39:16.269Z,95.14
2023-01-09T00:40:16.367Z,94.73
2023-01-09T00:41:16.253Z,95.75
2023-01-09T00:42:16.244Z,95.70
2023-01-09T00:43:16.232Z,95.39
2023-01-09T00:44:16.232Z,95.49
2023-01-09T00:45:16.220Z,96.27
2023-01-09T00:46:16.247Z,96.17
2023-01-09T00:47:16.200Z,96.06
2023-01-09T00:48:16.195Z,95.65
2023-01-09T00:49:16.179Z,96.00
2023-01-09T00:50:16.173Z,95.70
2023-01-09T00:51:17.159Z,96.42
2023-01-09T00:52:16.154Z,96.21
2023-01-09T00:53:16.142Z,96.31
2023-01-09T00:54:16.155Z,96.42
2023-01-09T00:55:16.125Z,96.62
2023-01-09T00:56:16.120Z,96.00
2023-01-09T00:57:16.108Z,97.03
2023-01-09T00:58:16.096Z,96.89
2023-01-09T00:59:16.091Z,96.78
2023-01-09T01:00:16.090Z,97.24
2023-01-09T01:01:16.195Z,97.19
2023-01-09T01:02:16.276Z,97.03
2023-01-09T01:03:16.057Z,97.14
2023-01-09T01:04:16.050Z,97.34
2023-01-09T01:05:16.047Z,98.06
2023-01-09T01:06:16.051Z,97.65
2023-01-09T01:07:16.013Z,98.06
2023-01-09T01:08:16.002Z,98.37
2023-01-09T01:09:15.990Z,98.27
2023-01-09T01:10:15.987Z,98.37
2023-01-09T01:11:15.973Z,98.16
2023-01-09T01:12:15.969Z,97.86
2023-01-09T01:13:15.956Z,98.16
2023-01-09T01:14:15.968Z,97.55
2023-01-09T01:15:15.943Z,98.58
2023-01-09T01:16:15.946Z,98.79
2023-01-09T01:17:15.943Z,98.79
2023-01-09T01:18:15.929Z,97.55
2023-01-09T01:19:15.899Z,98.68
2023-01-09T01:20:15.900Z,98.79
2023-01-09T01:21:15.877Z,99.14
2023-01-09T01:22:15.873Z,98.42
2023-01-09T01:23:15.871Z,98.93
2023-01-09T01:24:15.886Z,98.93
2023-01-09T01:25:15.856Z,98.52
2023-01-09T01:26:15.852Z,99.08
2023-01-09T01:27:15.826Z,99.99
2023-01-09T01:28:15.816Z,99.60
2023-01-09T01:29:15.807Z,99.80
2023-01-09T01:30:15.811Z,99.99
2023-01-09T01:31:15.787Z,99.80
2023-01-09T01:32:15.781Z,99.99
2023-01-09T01:33:15.772Z,99.99
2023-01-09T01:34:15.767Z,99.99
2023-01-09T01:35:15.767Z,99.96
2023-01-09T01:36:15.738Z,99.99
2023-01-09T01:37:15.738Z,99.96
2023-01-09T01:38:15.721Z,99.96
2023-01-09T01:39:15.702Z,99.91
2023-01-09T01:40:16.786Z,99.76
2023-01-09T01:41:15.695Z,99.99
2023-01-09T01:42:15.682Z,99.19
2023-01-09T01:43:15.670Z,99.09
2023-01-09T01:44:15.763Z,99.40
2023-01-09T01:45:15.667Z,98.79
2023-01-09T01:46:15.700Z,99.09
2023-01-09T01:47:15.631Z,98.58
2023-01-09T01:48:15.624Z,98.62
2023-01-09T01:49:15.617Z,99.34
2023-01-09T01:50:15.628Z,99.51
2023-01-09T01:51:15.625Z,99.40
2023-01-09T01:52:15.588Z,99.40
2023-01-09T01:53:15.589Z,99.40
2023-01-09T01:54:15.588Z,99.30
2023-01-09T01:55:15.582Z,99.30
2023-01-09T01:56:15.551Z,99.34
2023-01-09T01:57:15.551Z,99.44
2023-01-09T01:58:15.531Z,99.99
2023-01-09T01:59:15.530Z,99.34
2023-01-09T02:00:15.541Z,99.99
2023-01-09T02:01:15.563Z,99.99
2023-01-09T02:02:15.613Z,99.99
2023-01-09T02:03:15.487Z,99.96
2023-01-09T02:04:15.479Z,99.99
2023-01-09T02:05:15.501Z,99.86
2023-01-09T02:06:15.455Z,99.99
2023-01-09T02:07:15.463Z,99.99
2023-01-09T02:08:15.474Z,99.99
2023-01-09T02:09:15.440Z,99.99
2023-01-09T02:10:15.440Z,99.99
2023-01-09T02:11:15.421Z,99.99
2023-01-09T02:12:15.427Z,99.99
2023-01-09T02:13:15.415Z,99.99
2023-01-09T02:14:15.390Z,99.99
2023-01-09T02:15:15.394Z,99.99
2023-01-09T02:16:15.389Z,99.99
2023-01-09T02:17:15.373Z,99.99
2023-01-09T02:18:15.357Z,99.99
2023-01-09T02:19:15.350Z,99.99
2023-01-09T02:20:15.350Z,99.99
2023-01-09T02:21:15.336Z,99.99
2023-01-09T02:22:15.327Z,99.99
2023-01-09T02:23:15.314Z,99.99
2023-01-09T02:24:15.304Z,99.99
2023-01-09T02:25:15.363Z,99.99
2023-01-09T02:26:15.289Z,99.99
2023-01-09T02:27:15.293Z,99.99
2023-01-09T02:28:15.267Z,99.99
2023-01-09T02:29:15.272Z,99.99
2023-01-09T02:30:15.256Z,99.99
2023-01-09T02:31:15.311Z,99.99
2023-01-09T02:32:15.228Z,99.99
2023-01-09T02:33:15.220Z,99.99
2023-01-09T02:34:15.211Z,99.99
2023-01-09T02:35:15.217Z,99.99
2023-01-09T02:36:15.190Z,99.99
2023-01-09T02:37:15.181Z,99.99
2023-01-09T02:38:15.173Z,99.99
2023-01-09T02:39:16.169Z,99.99
2023-01-09T02:40:15.171Z,99.99
2023-01-09T02:41:15.148Z,99.99
2023-01-09T02:42:15.148Z,99.99
2023-01-09T02:43:15.130Z,99.99
2023-01-09T02:44:15.125Z,99.99
2023-01-09T02:45:15.130Z,99.99
2023-01-09T02:46:15.097Z,99.99
2023-01-09T02:47:15.102Z,99.99
2023-01-09T02:48:15.095Z,99.99
2023-01-09T02:49:15.077Z,99.99
2023-01-09T02:50:15.105Z,99.99
2023-01-09T02:51:15.051Z,99.99
2023-01-09T02:52:15.058Z,99.99
2023-01-09T02:53:15.036Z,99.99
2023-01-09T02:54:15.028Z,99.99
2023-01-09T02:55:15.032Z,99.99
2023-01-09T02:56:15.006Z,99.99
2023-01-09T02:57:14.996Z,99.99
2023-01-09T02:58:14.994Z,99.99
2023-01-09T02:59:14.996Z,99.99
2023-01-09T03:00:14.983Z,99.99
2023-01-09T03:01:15.071Z,99.99
2023-01-09T03:02:14.962Z,99.99
2023-01-09T03:03:15.004Z,99.99
2023-01-09T03:04:14.937Z,99.99
2023-01-09T03:05:14.937Z,99.99
2023-01-09T03:06:14.919Z,99.99
2023-01-09T03:07:14.917Z,99.99
2023-01-09T03:08:14.901Z,99.99
2023-01-09T03:09:14.887Z,99.99
2023-01-09T03:10:14.893Z,99.99
2023-01-09T03:11:14.885Z,99.99
2023-01-09T03:12:14.865Z,99.99
2023-01-09T03:13:14.858Z,99.99
2023-01-09T03:14:14.869Z,99.99
2023-01-09T03:15:14.854Z,99.99
2023-01-09T03:16:14.871Z,99.99
2023-01-09T03:17:14.835Z,99.99
2023-01-09T03:18:14.828Z,99.99
2023-01-09T03:19:14.808Z,99.99
2023-01-09T03:20:14.820Z,99.99
2023-01-09T03:21:14.786Z,99.99
2023-01-09T03:22:14.801Z,99.99
2023-01-09T03:23:14.778Z,99.99
2023-01-09T03:24:14.774Z,99.99
2023-01-09T03:25:14.777Z,99.99
2023-01-09T03:26:14.757Z,99.99
2023-01-09T03:27:14.736Z,99.99
2023-01-09T03:28:14.723Z,99.99
2023-01-09T03:29:15.720Z,99.99
2023-01-09T03:30:14.719Z,99.99
2023-01-09T03:31:14.767Z,99.99
2023-01-09T03:32:14.697Z,99.99
2023-01-09T03:33:14.688Z,99.99
2023-01-09T03:34:14.683Z,99.99
2023-01-09T03:35:14.681Z,99.99
2023-01-09T03:36:14.772Z,99.99
2023-01-09T03:37:14.665Z,99.99
2023-01-09T03:38:14.666Z,99.99
2023-01-09T03:39:14.638Z,99.99
2023-01-09T03:40:14.626Z,99.99
2023-01-09T03:41:14.638Z,99.99
2023-01-09T03:42:14.610Z,99.99
2023-01-09T03:43:14.609Z,99.99
2023-01-09T03:44:14.592Z,99.99
2023-01-09T03:45:14.582Z,99.99
2023-01-09T03:46:14.617Z,99.95
2023-01-09T03:47:14.561Z,99.99
2023-01-09T03:48:14.573Z,99.99
2023-01-09T03:49:14.558Z,99.95
2023-01-09T03:50:14.535Z,99.99
2023-01-09T03:51:14.668Z,99.43
2023-01-09T03:52:14.521Z,99.33
2023-01-09T03:53:14.507Z,98.71
2023-01-09T03:54:14.501Z,98.92
2023-01-09T03:55:15.700Z,98.61
2023-01-09T03:56:15.507Z,99.23
2023-01-09T03:57:14.477Z,98.50
2023-01-09T03:58:14.464Z,98.20
2023-01-09T03:59:14.468Z,99.02
2023-01-09T04:00:14.447Z,99.23
2023-01-09T04:01:14.560Z,99.13
2023-01-09T04:02:14.593Z,98.67
2023-01-09T04:03:14.424Z,98.77
2023-01-09T04:04:14.447Z,98.41
2023-01-09T04:05:14.401Z,98.10
2023-01-09T04:06:14.415Z,98.50
2023-01-09T04:07:14.388Z,98.57
2023-01-09T04:08:14.394Z,97.68
2023-01-09T04:09:14.381Z,97.64
2023-01-09T04:10:14.353Z,96.45
2023-01-09T04:11:14.366Z,97.52
2023-01-09T04:12:14.332Z,97.21
2023-01-09T04:13:14.335Z,97.21
2023-01-09T04:14:14.322Z,97.21
2023-01-09T04:15:14.316Z,96.91
2023-01-09T04:16:14.310Z,96.80
2023-01-09T04:17:14.296Z,97.26
2023-01-09T04:18:14.283Z,97.05
2023-01-09T04:19:14.275Z,97.05
2023-01-09T04:20:14.281Z,96.53
2023-01-09T04:21:14.269Z,96.44
2023-01-09T04:22:14.244Z,96.53
2023-01-09T04:23:14.233Z,96.44
2023-01-09T04:24:14.233Z,96.84
2023-01-09T04:25:14.220Z,96.84
2023-01-09T04:26:14.224Z,96.33
2023-01-09T04:27:14.202Z,96.74
2023-01-09T04:28:14.195Z,96.64
2023-01-09T04:29:14.195Z,96.27
2023-01-09T04:30:14.173Z,96.02
2023-01-09T04:31:14.308Z,96.33
2023-01-09T04:32:14.159Z,96.44
2023-01-09T04:33:14.149Z,96.64
2023-01-09T04:34:14.164Z,95.71
2023-01-09T04:35:14.163Z,95.92
2023-01-09T04:36:14.135Z,96.23
2023-01-09T04:37:14.121Z,96.02
2023-01-09T04:38:14.105Z,96.44
2023-01-09T04:39:14.102Z,96.64
2023-01-09T04:40:14.124Z,96.12
2023-01-09T04:41:14.091Z,96.23
2023-01-09T04:42:14.076Z,95.40
2023-01-09T04:43:14.101Z,96.48
2023-01-09T04:44:14.062Z,96.58
2023-01-09T04:45:14.041Z,96.53
2023-01-09T04:46:14.116Z,96.23
2023-01-09T04:47:14.028Z,95.76
2023-01-09T04:48:14.014Z,95.65
2023-01-09T04:49:14.009Z,96.44
2023-01-09T04:50:13.996Z,96.33
2023-01-09T04:51:14.103Z,95.76
2023-01-09T04:52:14.979Z,96.17
2023-01-09T04:53:45.879Z,96.37
2023-01-09T04:54:13.967Z,96.37
2023-01-09T04:55:13.966Z,96.23
2023-01-09T04:56:13.953Z,96.23
2023-01-09T04:57:13.946Z,96.74
2023-01-09T04:58:13.924Z,96.58
2023-01-09T04:59:13.986Z,96.53
2023-01-09T05:00:13.936Z,96.48
2023-01-09T05:01:14.013Z,96.44
2023-01-09T05:02:13.980Z,96.23
2023-01-09T05:03:13.880Z,96.33
2023-01-09T05:04:13.888Z,96.33
2023-01-09T05:05:13.870Z,96.44
2023-01-09T05:06:13.862Z,96.23
2023-01-09T05:07:13.843Z,96.48
2023-01-09T05:08:13.836Z,96.33
2023-01-09T05:09:13.823Z,96.53
2023-01-09T05:10:13.815Z,96.74
2023-01-09T05:11:13.820Z,97.05
2023-01-09T05:12:13.910Z,96.02
2023-01-09T05:13:13.813Z,96.27
2023-01-09T05:14:13.781Z,96.33
2023-01-09T05:15:13.774Z,96.37
2023-01-09T05:16:13.797Z,96.06
2023-01-09T05:17:13.747Z,96.27
2023-01-09T05:18:13.742Z,96.17
2023-01-09T05:19:13.748Z,96.37
2023-01-09T05:20:13.721Z,96.23
2023-01-09T05:21:13.729Z,96.58
2023-01-09T05:22:13.705Z,96.58
2023-01-09T05:23:13.716Z,96.33
2023-01-09T05:24:13.703Z,96.17
2023-01-09T05:25:13.708Z,96.37
2023-01-09T05:26:14.695Z,96.12
2023-01-09T05:27:13.662Z,95.96
2023-01-09T05:28:13.682Z,96.48
2023-01-09T05:29:13.648Z,96.27
2023-01-09T05:30:14.680Z,96.27
2023-01-09T05:31:14.689Z,96.06
2023-01-09T05:32:13.620Z,96.27
2023-01-09T05:33:13.611Z,96.06
2023-01-09T05:34:13.607Z,95.96
2023-01-09T05:35:13.608Z,96.12
2023-01-09T05:36:13.599Z,96.27
2023-01-09T05:37:13.578Z,96.33
2023-01-09T05:38:13.559Z,96.23
2023-01-09T05:39:13.555Z,95.71
2023-01-09T05:40:13.556Z,95.50
2023-01-09T05:41:13.543Z,95.61
2023-01-09T05:42:13.518Z,96.02
2023-01-09T05:43:13.521Z,96.12
2023-01-09T05:44:13.510Z,95.81
2023-01-09T05:45:13.498Z,94.89
2023-01-09T05:46:13.500Z,95.09
2023-01-09T05:47:13.499Z,94.68
2023-01-09T05:48:13.474Z,94.27
2023-01-09T05:49:13.469Z,94.37
2023-01-09T05:50:13.481Z,94.78
2023-01-09T05:51:13.462Z,94.17
2023-01-09T05:52:13.437Z,94.32
2023-01-09T05:53:13.439Z,94.43
2023-01-09T05:54:13.426Z,94.89
2023-01-09T05:55:13.424Z,94.06
2023-01-09T05:56:13.419Z,94.37
2023-01-09T05:57:13.400Z,93.40
2023-01-09T05:58:13.398Z,93.96
2023-01-09T05:59:13.395Z,93.75
2023-01-09T06:00:13.375Z,93.03
2023-01-09T06:01:13.426Z,93.13
2023-01-09T06:02:13.501Z,93.96
2023-01-09T06:03:13.375Z,93.96
2023-01-09T06:04:13.342Z,93.65
2023-01-09T06:05:13.331Z,93.38
2023-01-09T06:06:13.333Z,93.24
2023-01-09T06:07:18.038Z,93.69
2023-01-09T06:08:15.300Z,93.38
2023-01-09T06:09:13.292Z,93.79
2023-01-09T06:10:13.287Z,93.69
2023-01-09T06:11:13.302Z,93.90
2023-01-09T06:12:13.269Z,94.21
2023-01-09T06:13:13.272Z,94.67
2023-01-09T06:14:13.277Z,94.67
2023-01-09T06:15:13.237Z,94.87
2023-01-09T06:16:13.359Z,94.77
2023-01-09T06:17:13.217Z,95.18
2023-01-09T06:18:13.226Z,95.90
2023-01-09T06:19:13.197Z,96.01
2023-01-09T06:20:13.195Z,95.59
2023-01-09T06:21:13.190Z,95.28
2023-01-09T06:22:13.171Z,96.21
2023-01-09T06:23:13.778Z,95.39
2023-01-09T06:24:14.161Z,95.90
2023-01-09T06:25:13.144Z,95.59
2023-01-09T06:26:13.153Z,95.59
2023-01-09T06:27:13.150Z,95.70
2023-01-09T06:28:13.118Z,95.28
2023-01-09T06:29:13.108Z,95.39
2023-01-09T06:30:13.100Z,95.28
2023-01-09T06:31:13.177Z,96.01
2023-01-09T06:32:13.080Z,95.80
2023-01-09T06:33:13.072Z,95.64
2023-01-09T06:34:13.067Z,95.80
2023-01-09T06:35:13.070Z,95.70
2023-01-09T06:36:13.060Z,95.90
2023-01-09T06:37:13.037Z,95.90
2023-01-09T06:38:13.041Z,96.06
2023-01-09T06:39:13.035Z,96.01
2023-01-09T06:40:13.020Z,95.80
2023-01-09T06:41:13.032Z,96.01
2023-01-09T06:42:12.999Z,96.01
2023-01-09T06:43:12.992Z,95.59
2023-01-09T06:44:12.983Z,95.74
2023-01-09T06:45:12.980Z,95.80
2023-01-09T06:46:13.041Z,95.59
2023-01-09T06:47:12.959Z,95.70
2023-01-09T06:48:12.951Z,95.70
2023-01-09T06:49:12.935Z,95.95
2023-01-09T06:50:12.945Z,96.05
2023-01-09T06:51:12.919Z,96.56
2023-01-09T06:52:12.919Z,96.98
2023-01-09T06:53:12.908Z,96.88
2023-01-09T06:54:12.891Z,96.01
2023-01-09T06:55:12.877Z,95.74
2023-01-09T06:56:12.875Z,96.15
2023-01-09T06:57:12.889Z,95.74
2023-01-09T06:58:12.854Z,95.18
2023-01-09T06:59:12.845Z,95.59
2023-01-09T07:00:12.860Z,95.74
2023-01-09T07:01:12.929Z,95.12
2023-01-09T07:02:12.846Z,95.39
2023-01-09T07:03:12.815Z,95.49
2023-01-09T07:04:12.901Z,94.92
2023-01-09T07:05:12.794Z,94.92
2023-01-09T07:06:12.784Z,94.81
2023-01-09T07:07:12.787Z,95.02
2023-01-09T07:08:12.769Z,94.97
2023-01-09T07:09:12.756Z,95.02
2023-01-09T07:10:13.751Z,95.12
2023-01-09T07:11:12.747Z,94.87
2023-01-09T07:12:12.761Z,94.77
2023-01-09T07:13:12.730Z,94.50
2023-01-09T07:14:12.716Z,95.02
2023-01-09T07:15:12.723Z,95.12
2023-01-09T07:16:12.811Z,94.71
2023-01-09T07:17:12.698Z,94.92
2023-01-09T07:18:12.750Z,95.27
2023-01-09T07:19:12.672Z,94.92
2023-01-09T07:20:12.663Z,94.92
2023-01-09T07:21:12.659Z,94.92
2023-01-09T07:22:12.678Z,94.92
2023-01-09T07:23:12.640Z,94.92
2023-01-09T07:24:12.631Z,94.81
2023-01-09T07:25:12.625Z,94.50
2023-01-09T07:26:12.617Z,94.60
2023-01-09T07:27:12.633Z,94.09
2023-01-09T07:28:12.684Z,93.88
2023-01-09T07:29:12.603Z,93.68
2023-01-09T07:30:12.582Z,93.88
2023-01-09T07:31:12.618Z,94.19
2023-01-09T07:32:12.578Z,93.47
2023-01-09T07:33:12.555Z,93.57
2023-01-09T07:34:12.548Z,93.78
2023-01-09T07:35:12.533Z,93.47
2023-01-09T07:36:12.550Z,93.68
2023-01-09T07:37:12.536Z,93.78
2023-01-09T07:38:12.515Z,93.47
2023-01-09T07:39:12.500Z,93.63
2023-01-09T07:40:12.493Z,94.15
2023-01-09T07:41:12.484Z,93.57
2023-01-09T07:42:12.491Z,93.84
2023-01-09T07:43:12.467Z,93.98
2023-01-09T07:44:12.463Z,94.50
2023-01-09T07:45:12.456Z,94.71
2023-01-09T07:46:12.516Z,94.50
2023-01-09T07:47:12.440Z,93.78
2023-01-09T07:48:12.415Z,94.40
2023-01-09T07:49:12.423Z,95.02
2023-01-09T07:50:12.406Z,94.71
2023-01-09T07:51:12.393Z,94.96
2023-01-09T07:52:12.399Z,95.06
2023-01-09T07:53:12.379Z,94.50
2023-01-09T07:54:12.372Z,93.57
2023-01-09T07:55:12.385Z,93.26
2023-01-09T07:56:12.358Z,93.10
2023-01-09T07:57:12.355Z,92.85
2023-01-09T07:58:12.342Z,93.10
2023-01-09T07:59:12.328Z,93.72
2023-01-09T08:00:12.319Z,93.62
2023-01-09T08:01:12.472Z,93.82
2023-01-09T08:02:12.359Z,94.34
2023-01-09T08:03:12.312Z,93.93
2023-01-09T08:04:12.281Z,93.88
2023-01-09T08:05:12.274Z,94.09
2023-01-09T08:06:12.310Z,93.98
2023-01-09T08:07:12.286Z,93.62
2023-01-09T08:08:12.245Z,94.50
2023-01-09T08:09:12.238Z,94.03
2023-01-09T08:10:12.240Z,94.65
2023-01-09T08:11:12.219Z,94.85
2023-01-09T08:12:12.224Z,94.19
2023-01-09T08:13:12.210Z,94.81
2023-01-09T08:14:12.209Z,94.71
2023-01-09T08:15:12.215Z,95.02
2023-01-09T08:16:12.223Z,94.50
2023-01-09T08:17:12.184Z,93.88
2023-01-09T08:18:12.161Z,94.09
2023-01-09T08:19:12.206Z,94.40
2023-01-09T08:20:12.161Z,94.29
2023-01-09T08:21:12.132Z,95.02
2023-01-09T08:22:13.136Z,94.81
2023-01-09T08:23:12.111Z,94.81
2023-01-09T08:24:12.132Z,94.81
2023-01-09T08:25:12.768Z,94.29
2023-01-09T08:26:13.089Z,95.12
2023-01-09T08:27:12.140Z,94.92
2023-01-09T08:28:12.079Z,95.12
2023-01-09T08:29:12.063Z,94.81
2023-01-09T08:30:12.043Z,96.47
2023-01-09T08:31:12.059Z,96.26
2023-01-09T08:32:12.041Z,95.84
2023-01-09T08:33:12.025Z,95.95
2023-01-09T08:34:12.021Z,95.49
2023-01-09T08:35:12.000Z,95.64
2023-01-09T08:36:12.075Z,95.39
2023-01-09T08:37:12.001Z,95.49
2023-01-09T08:38:11.982Z,95.28
2023-01-09T08:39:11.967Z,95.18
2023-01-09T08:40:11.956Z,94.56
2023-01-09T08:41:11.973Z,94.87
2023-01-09T08:42:11.961Z,94.40
2023-01-09T08:43:11.936Z,94.81
2023-01-09T08:44:11.925Z,93.98
2023-01-09T08:45:11.920Z,94.46
2023-01-09T08:46:11.949Z,93.63
2023-01-09T08:47:11.916Z,93.84
2023-01-09T08:48:11.899Z,93.73
2023-01-09T08:49:11.908Z,94.00
2023-01-09T08:50:11.889Z,93.84
2023-01-09T08:51:11.864Z,93.84
2023-01-09T08:52:11.865Z,93.32
2023-01-09T08:53:11.845Z,93.63
2023-01-09T08:54:11.841Z,93.43
2023-01-09T08:55:11.834Z,93.43
2023-01-09T08:56:11.912Z,92.91
2023-01-09T08:57:11.830Z,92.60
2023-01-09T08:58:11.806Z,92.19
2023-01-09T08:59:11.795Z,92.14
2023-01-09T09:00:11.787Z,91.94
2023-01-09T09:01:11.837Z,91.89
2023-01-09T09:02:11.810Z,91.54
2023-01-09T09:03:11.780Z,90.31
2023-01-09T09:04:11.749Z,90.00
2023-01-09T09:05:11.742Z,90.97
2023-01-09T09:06:11.731Z,90.82
2023-01-09T09:07:11.739Z,90.86
2023-01-09T09:08:11.714Z,90.97
2023-01-09T09:09:11.710Z,90.76
2023-01-09T09:10:11.703Z,90.70
2023-01-09T09:11:11.694Z,90.70
2023-01-09T09:12:11.692Z,90.55
2023-01-09T09:13:11.671Z,90.66
2023-01-09T09:14:11.657Z,90.66
2023-01-09T09:15:11.671Z,90.86
2023-01-09T09:16:11.659Z,90.86
2023-01-09T09:17:11.658Z,90.55
2023-01-09T09:18:11.626Z,90.61
2023-01-09T09:19:11.628Z,90.97
2023-01-09T09:20:11.610Z,90.66
2023-01-09T09:21:11.676Z,90.51
2023-01-09T09:22:11.613Z,90.82
2023-01-09T09:23:11.585Z,89.73
2023-01-09T09:24:11.580Z,89.83
2023-01-09T09:25:11.574Z,90.04
2023-01-09T09:26:11.555Z,89.62
2023-01-09T09:27:11.561Z,89.83
2023-01-09T09:28:11.548Z,89.83
2023-01-09T09:29:11.547Z,89.42
2023-01-09T09:30:11.553Z,89.62
2023-01-09T09:31:11.570Z,89.62
2023-01-09T09:32:11.518Z,89.83
2023-01-09T09:33:11.517Z,89.73
2023-01-09T09:34:11.489Z,89.83
2023-01-09T09:35:11.487Z,90.35
2023-01-09T09:36:11.495Z,89.83
2023-01-09T09:37:11.526Z,89.22
2023-01-09T09:38:11.470Z,88.80
2023-01-09T09:39:11.438Z,88.90
2023-01-09T09:40:18.457Z,89.22
2023-01-09T09:41:13.433Z,89.73
2023-01-09T09:42:11.445Z,89.73
2023-01-09T09:43:11.420Z,89.52
2023-01-09T09:44:11.425Z,89.67
2023-01-09T09:45:11.398Z,89.67
2023-01-09T09:46:11.436Z,89.67
2023-01-09T09:47:11.394Z,89.62
2023-01-09T09:48:11.366Z,89.46
2023-01-09T09:49:11.356Z,89.87
2023-01-09T09:50:11.352Z,89.22
2023-01-09T09:51:11.346Z,89.52
2023-01-09T09:52:11.347Z,89.32
2023-01-09T09:53:11.355Z,89.73
2023-01-09T09:54:13.749Z,89.42
2023-01-09T09:55:12.301Z,89.01
2023-01-09T09:56:11.299Z,89.52
2023-01-09T09:57:11.302Z,89.73
2023-01-09T09:58:11.275Z,89.22
2023-01-09T09:59:11.279Z,89.11
2023-01-09T10:00:11.260Z,89.42
2023-01-09T10:01:11.341Z,89.01
2023-01-09T10:02:11.300Z,88.92
2023-01-09T10:03:11.323Z,88.45
2023-01-09T10:04:11.222Z,88.96
2023-01-09T10:05:11.221Z,88.62
2023-01-09T10:06:11.203Z,88.82
2023-01-09T10:07:11.202Z,88.92
2023-01-09T10:08:15.656Z,88.20
2023-01-09T10:09:12.185Z,87.54
2023-01-09T10:10:11.170Z,86.61
2023-01-09T10:11:11.160Z,85.65
2023-01-09T10:12:11.159Z,84.21
2023-01-09T10:13:11.157Z,84.61
2023-01-09T10:14:23.277Z,81.76
2023-01-09T10:15:13.125Z,78.63
2023-01-09T10:16:11.162Z,76.10
2023-01-09T10:17:11.113Z,75.69
2023-01-09T10:18:11.123Z,75.66
2023-01-09T10:19:11.085Z,76.37
2023-01-09T10:20:11.074Z,74.08
2023-01-09T10:21:11.115Z,73.40
2023-01-09T10:22:11.060Z,74.15
2023-01-09T10:23:11.063Z,74.87
2023-01-09T10:24:11.083Z,75.04
2023-01-09T10:25:11.028Z,75.93
2023-01-09T10:26:11.040Z,75.76
2023-01-09T10:27:11.018Z,75.35
2023-01-09T10:28:11.022Z,72.41
2023-01-09T10:29:10.985Z,72.89
2023-01-09T10:30:10.983Z,73.85
2023-01-09T10:31:11.011Z,75.11
2023-01-09T10:32:10.959Z,75.31
2023-01-09T10:33:11.013Z,76.58
2023-01-09T10:34:10.937Z,77.09
2023-01-09T10:35:10.929Z,77.74
2023-01-09T10:36:10.947Z,78.56
2023-01-09T10:37:10.951Z,78.60
2023-01-09T10:38:10.923Z,79.46
2023-01-09T10:39:10.895Z,79.36
2023-01-09T10:40:10.883Z,80.35
2023-01-09T10:41:10.874Z,81.18
2023-01-09T10:42:10.863Z,81.38
2023-01-09T10:43:10.881Z,81.59
2023-01-09T10:44:10.854Z,81.07
2023-01-09T10:45:10.873Z,81.01
2023-01-09T10:46:10.862Z,81.42
2023-01-09T10:47:10.815Z,82.48
2023-01-09T10:48:10.836Z,82.59
2023-01-09T10:49:10.806Z,82.65
2023-01-09T10:50:10.790Z,83.11
2023-01-09T10:51:10.806Z,83.72
2023-01-09T10:52:10.768Z,82.90
2023-01-09T10:53:10.765Z,83.41
2023-01-09T10:54:37.161Z,83.41
2023-01-09T10:55:10.742Z,83.41
2023-01-09T10:56:10.731Z,83.31
2023-01-09T10:57:10.722Z,83.27
2023-01-09T10:58:10.731Z,82.90
2023-01-09T10:59:10.701Z,83.31
2023-01-09T11:00:10.695Z,82.48
2023-01-09T11:01:10.688Z,82.28
2023-01-09T11:02:10.716Z,83.00
2023-01-09T11:03:10.768Z,83.04
2023-01-09T11:04:10.658Z,83.31
2023-01-09T11:05:10.651Z,83.45
2023-01-09T11:06:10.640Z,83.76
2023-01-09T11:07:10.654Z,84.17
2023-01-09T11:08:10.665Z,83.41
2023-01-09T11:09:10.614Z,83.72
2023-01-09T11:10:10.612Z,83.76
2023-01-09T11:11:10.604Z,84.34
2023-01-09T11:12:10.592Z,84.48
2023-01-09T11:13:10.590Z,84.27
2023-01-09T11:14:10.569Z,84.13
2023-01-09T11:15:10.569Z,83.83
2023-01-09T11:16:10.676Z,83.55
2023-01-09T11:17:10.544Z,83.65
2023-01-09T11:18:10.546Z,84.17
2023-01-09T11:19:10.533Z,84.38
2023-01-09T11:20:12.825Z,84.69
2023-01-09T11:21:10.510Z,84.17
2023-01-09T11:22:10.499Z,83.97
2023-01-09T11:23:10.503Z,83.97
2023-01-09T11:24:10.482Z,84.07
2023-01-09T11:25:10.474Z,83.97
2023-01-09T11:26:11.097Z,84.38
2023-01-09T11:27:11.458Z,84.79
2023-01-09T11:28:10.459Z,84.27
2023-01-09T11:29:10.441Z,84.48
2023-01-09T11:30:10.430Z,83.92
2023-01-09T11:31:10.426Z,84.38
2023-01-09T11:32:10.413Z,84.64
2023-01-09T11:33:10.417Z,84.54
2023-01-09T11:34:10.390Z,84.64
2023-01-09T11:35:10.376Z,84.44
2023-01-09T11:36:10.380Z,84.03
2023-01-09T11:37:10.449Z,84.23
2023-01-09T11:38:10.366Z,83.83
2023-01-09T11:39:10.338Z,83.72
2023-01-09T11:40:10.332Z,83.72
2023-01-09T11:41:10.335Z,84.03
2023-01-09T11:42:10.321Z,84.23
2023-01-09T11:43:10.331Z,84.23
2023-01-09T11:44:10.304Z,83.62
2023-01-09T11:45:10.321Z,83.92
2023-01-09T11:46:10.283Z,84.17
2023-01-09T11:47:10.270Z,84.89
2023-01-09T11:48:10.274Z,84.75
2023-01-09T11:49:10.257Z,84.58
2023-01-09T11:50:10.257Z,83.97
2023-01-09T11:51:10.235Z,84.27
2023-01-09T11:52:10.223Z,84.75
2023-01-09T11:53:10.223Z,84.79
2023-01-09T11:54:10.211Z,84.58
2023-01-09T11:55:10.200Z,84.38
2023-01-09T11:56:10.192Z,84.99
2023-01-09T11:57:10.183Z,84.95
2023-01-09T11:58:10.199Z,84.54
2023-01-09T11:59:10.160Z,84.79
2023-01-09T12:00:10.151Z,85.26
2023-01-09T12:01:10.135Z,84.75
2023-01-09T12:02:10.155Z,84.44
2023-01-09T12:03:10.157Z,85.06
2023-01-09T12:04:10.112Z,85.16
2023-01-09T12:05:10.137Z,85.51
2023-01-09T12:06:10.093Z,85.36
2023-01-09T12:07:10.083Z,85.51
2023-01-09T12:08:10.094Z,85.57
2023-01-09T12:09:10.065Z,85.88
2023-01-09T12:10:11.058Z,84.75
2023-01-09T12:11:10.041Z,85.51
2023-01-09T12:12:10.037Z,84.99
2023-01-09T12:13:10.064Z,86.02
2023-01-09T12:14:10.019Z,85.41
2023-01-09T12:15:10.255Z,86.74
2023-01-09T12:16:11.029Z,87.09
2023-01-09T12:17:09.992Z,87.40
2023-01-09T12:18:09.992Z,86.79
2023-01-09T12:19:09.973Z,86.99
2023-01-09T12:20:09.961Z,87.19
2023-01-09T12:21:09.953Z,87.51
2023-01-09T12:22:09.942Z,87.51
2023-01-09T12:23:09.961Z,87.46
2023-01-09T12:24:09.927Z,87.67
2023-01-09T12:25:09.916Z,88.02
2023-01-09T12:26:09.957Z,89.22
2023-01-09T12:27:09.895Z,88.18
2023-01-09T12:28:09.921Z,89.11
2023-01-09T12:29:09.879Z,88.70
2023-01-09T12:30:09.889Z,88.80
2023-01-09T12:31:09.874Z,89.42
2023-01-09T12:32:09.909Z,89.22
2023-01-09T12:33:09.861Z,88.95
2023-01-09T12:34:09.833Z,88.59
2023-01-09T12:35:09.821Z,88.59
2023-01-09T12:36:09.829Z,88.59
2023-01-09T12:37:11.571Z,88.70
2023-01-09T12:38:10.817Z,88.70
2023-01-09T12:39:09.801Z,88.29
2023-01-09T12:40:09.783Z,87.42
2023-01-09T12:41:09.769Z,87.32
2023-01-09T12:42:09.777Z,87.52
2023-01-09T12:43:09.758Z,87.01
2023-01-09T12:44:09.749Z,87.63
2023-01-09T12:45:09.742Z,87.05
2023-01-09T12:46:09.752Z,87.36
2023-01-09T12:47:09.730Z,88.29
2023-01-09T12:48:09.711Z,88.59
2023-01-09T12:49:09.746Z,88.39
2023-01-09T12:50:09.699Z,88.04
2023-01-09T12:51:09.701Z,87.26
2023-01-09T12:52:09.671Z,86.70